Time;durP1;ratioP1;P1;durP2;ratioP2;P2;SDS_P1;SDS_P2;PMS_P1;PMS_P2;Temp;Humidity;BMP_temperature;BMP_pressure;BME280_temperature;BME280_humidity;BME280_pressure;Samples;Min_cycle;Max_cycle;Signal;HPM_P1;HPM_P2
2021/10/22 00:00:08;;;;;;;0.97;0.73;;;14.10;99.90;;;;;;4933374;29;20460;-80
2021/10/22 00:02:36;;;;;;;0.90;0.70;;;14.10;99.90;;;;;;4933138;29;20454;-80
2021/10/22 00:05:06;;;;;;;0.73;0.73;;;14.10;99.90;;;;;;4929226;29;20486;-82
2021/10/22 00:07:34;;;;;;;1.57;0.83;;;14.10;99.90;;;;;;4930613;29;20475;-81
2021/10/22 00:10:03;;;;;;;0.67;0.67;;;14.00;99.90;;;;;;4916140;29;20550;-83
2021/10/22 00:12:32;;;;;;;0.73;0.70;;;14.00;99.90;;;;;;4925696;29;20473;-80
2021/10/22 00:15:01;;;;;;;1.13;0.70;;;14.00;99.90;;;;;;4914498;29;20471;-81
2021/10/22 00:17:29;;;;;;;0.80;0.70;;;14.00;99.90;;;;;;4918472;29;20478;-82
2021/10/22 00:19:57;;;;;;;0.70;0.70;;;14.00;99.90;;;;;;4924722;29;20463;-81
2021/10/22 00:22:25;;;;;;;1.17;0.87;;;14.00;99.90;;;;;;4930876;29;20469;-84
2021/10/22 00:24:53;;;;;;;1.03;1.00;;;14.00;99.90;;;;;;4929716;29;20477;-81
2021/10/22 00:27:22;;;;;;;1.20;1.10;;;14.00;99.90;;;;;;4924421;29;21032;-83
2021/10/22 00:29:52;;;;;;;0.80;0.80;;;14.00;99.90;;;;;;4925071;29;20454;-82
2021/10/22 00:32:20;;;;;;;1.37;1.00;;;14.00;99.90;;;;;;4928570;29;20470;-83
2021/10/22 00:34:48;;;;;;;0.70;0.70;;;14.00;99.90;;;;;;4938213;29;20467;-82
2021/10/22 00:37:17;;;;;;;1.00;0.83;;;14.00;99.90;;;;;;4924159;29;20474;-82
2021/10/22 00:39:45;;;;;;;0.60;0.60;;;14.00;99.90;;;;;;4939817;29;20470;-82
2021/10/22 00:42:14;;;;;;;1.90;0.70;;;13.90;99.90;;;;;;4931382;29;21025;-82
2021/10/22 00:44:43;;;;;;;2.43;1.67;;;13.90;99.90;;;;;;4923673;29;20563;-82
2021/10/22 00:47:12;;;;;;;0.70;0.70;;;13.90;99.90;;;;;;4943661;29;20462;-82
2021/10/22 00:49:40;;;;;;;1.20;0.80;;;13.90;99.90;;;;;;4918570;29;20461;-81
2021/10/22 00:52:09;;;;;;;0.90;0.70;;;14.00;99.90;;;;;;4921573;29;20502;-83
2021/10/22 00:54:37;;;;;;;0.70;0.70;;;13.90;99.90;;;;;;4922014;29;20458;-84
2021/10/22 00:57:06;;;;;;;0.90;0.70;;;13.90;99.90;;;;;;4922579;29;20581;-81
2021/10/22 00:59:35;;;;;;;1.00;0.93;;;13.90;99.90;;;;;;4921171;29;20490;-83
2021/10/22 01:02:03;;;;;;;1.57;0.60;;;14.00;99.90;;;;;;4921134;29;20487;-82
2021/10/22 01:04:33;;;;;;;0.70;0.60;;;13.90;99.90;;;;;;4916444;29;20470;-81
2021/10/22 01:07:02;;;;;;;1.33;0.53;;;13.90;99.90;;;;;;4934727;29;20883;-82
2021/10/22 01:09:30;;;;;;;0.60;0.60;;;13.90;99.90;;;;;;4922726;29;20450;-83
2021/10/22 01:11:58;;;;;;;0.60;0.60;;;13.80;99.90;;;;;;4923325;29;20491;-81
2021/10/22 01:14:27;;;;;;;1.53;0.60;;;13.70;99.90;;;;;;4923620;29;20467;-82
2021/10/22 01:16:56;;;;;;;1.07;0.60;;;13.70;99.90;;;;;;4923321;29;20544;-80
2021/10/22 01:19:24;;;;;;;0.70;0.60;;;13.80;99.90;;;;;;4920564;29;20545;-80
2021/10/22 01:21:53;;;;;;;1.47;0.70;;;13.70;99.90;;;;;;4909684;29;20463;-80
2021/10/22 01:24:22;;;;;;;0.70;0.70;;;13.80;99.90;;;;;;4940860;29;20458;-81
2021/10/22 01:26:50;;;;;;;0.50;0.50;;;13.80;99.90;;;;;;4922816;29;20890;-81
2021/10/22 01:29:18;;;;;;;0.93;0.80;;;13.80;99.90;;;;;;4920537;29;20459;-85
2021/10/22 01:31:47;;;;;;;0.60;0.60;;;13.80;99.90;;;;;;4920480;29;20462;-81
2021/10/22 01:34:15;;;;;;;0.90;0.60;;;13.80;99.90;;;;;;4920634;29;20478;-81
2021/10/22 01:36:43;;;;;;;1.63;0.80;;;13.80;99.90;;;;;;4922167;29;20554;-82
2021/10/22 01:39:14;;;;;;;1.73;0.67;;;13.80;99.90;;;;;;4922981;29;20457;-83
2021/10/22 01:41:42;;;;;;;1.13;0.80;;;13.70;99.90;;;;;;4923710;29;20461;-83
2021/10/22 01:44:12;;;;;;;0.93;0.70;;;13.70;99.90;;;;;;4922042;29;20470;-83
2021/10/22 01:46:41;;;;;;;0.60;0.60;;;13.70;99.90;;;;;;4917004;29;20490;-83
2021/10/22 01:49:10;;;;;;;5.70;1.90;;;13.80;99.90;;;;;;4919406;29;20504;-81
2021/10/22 01:51:38;;;;;;;2.50;1.30;;;13.80;99.90;;;;;;4920482;29;20510;-82
2021/10/22 01:54:06;;;;;;;1.50;0.77;;;13.80;99.90;;;;;;4925331;29;20459;-82
2021/10/22 01:56:36;;;;;;;0.83;0.80;;;13.70;99.90;;;;;;4922676;29;20997;-82
2021/10/22 01:59:04;;;;;;;1.27;0.80;;;13.70;99.90;;;;;;4921280;29;20960;-81
2021/10/22 02:01:32;;;;;;;1.47;0.70;;;13.70;99.90;;;;;;4921658;29;20471;-82
2021/10/22 02:04:00;;;;;;;1.10;0.97;;;13.70;99.90;;;;;;4921527;29;20513;-83
2021/10/22 02:06:29;;;;;;;1.60;0.80;;;13.70;99.90;;;;;;4921034;29;20577;-82
2021/10/22 02:08:57;;;;;;;1.20;0.87;;;13.80;99.90;;;;;;4918986;29;20469;-83
2021/10/22 02:11:25;;;;;;;2.90;1.30;;;13.70;99.90;;;;;;4921283;29;20473;-82
2021/10/22 02:13:55;;;;;;;1.13;0.60;;;13.70;99.90;;;;;;4918687;29;21042;-81
2021/10/22 02:16:23;;;;;;;2.07;0.60;;;13.60;99.90;;;;;;4930249;29;20483;-82
2021/10/22 02:18:52;;;;;;;1.77;1.40;;;13.70;99.90;;;;;;4929264;29;20509;-82
2021/10/22 02:21:21;;;;;;;0.50;0.50;;;13.60;99.90;;;;;;4921865;29;20463;-83
2021/10/22 02:23:49;;;;;;;0.93;0.70;;;13.60;99.90;;;;;;4922115;29;20466;-84
2021/10/22 02:26:17;;;;;;;1.33;0.70;;;13.60;99.90;;;;;;4913694;29;20550;-81
2021/10/22 02:28:45;;;;;;;2.50;0.70;;;13.60;99.90;;;;;;4915386;29;20876;-84
2021/10/22 02:31:16;;;;;;;1.63;1.00;;;13.50;99.90;;;;;;4934264;29;20457;-81
2021/10/22 02:33:44;;;;;;;0.70;0.70;;;13.60;99.90;;;;;;4916335;29;20472;-80
2021/10/22 02:36:12;;;;;;;9.00;0.77;;;13.60;99.90;;;;;;4921276;29;20482;-82
2021/10/22 02:38:40;;;;;;;9.73;1.20;;;13.60;99.90;;;;;;4922318;29;20467;-83
2021/10/22 02:41:09;;;;;;;1.20;0.80;;;13.50;99.90;;;;;;4926970;29;20544;-81
2021/10/22 02:43:37;;;;;;;1.13;1.03;;;13.50;99.90;;;;;;4942628;29;20480;-82
2021/10/22 02:46:06;;;;;;;3.97;0.87;;;13.50;99.90;;;;;;4926157;29;20478;-85
2021/10/22 02:48:35;;;;;;;1.57;0.80;;;13.40;99.90;;;;;;4919992;29;20545;-83
2021/10/22 02:51:03;;;;;;;1.90;0.70;;;13.30;99.90;;;;;;4921865;29;20450;-83
2021/10/22 02:53:32;;;;;;;0.97;0.60;;;13.30;99.90;;;;;;4922373;29;20442;-82
2021/10/22 02:56:00;;;;;;;1.23;0.97;;;13.20;99.90;;;;;;4920608;29;20827;-83
2021/10/22 02:58:28;;;;;;;0.70;0.70;;;13.20;99.90;;;;;;4920678;29;20460;-81
2021/10/22 03:00:57;;;;;;;1.13;0.70;;;13.10;99.90;;;;;;4921201;29;20462;-82
2021/10/22 03:03:25;;;;;;;0.80;0.80;;;13.20;99.90;;;;;;4919520;29;20457;-81
2021/10/22 03:05:55;;;;;;;0.80;0.80;;;13.10;99.90;;;;;;4919422;29;20477;-82
2021/10/22 03:08:23;;;;;;;2.30;0.90;;;13.00;99.90;;;;;;4912383;29;20485;-80
2021/10/22 03:10:52;;;;;;;0.70;0.70;;;13.00;99.90;;;;;;4917262;29;20469;-83
2021/10/22 03:13:20;;;;;;;1.00;0.60;;;12.90;99.90;;;;;;4917154;29;20466;-81
2021/10/22 03:15:48;;;;;;;3.10;0.80;;;12.90;99.90;;;;;;4917957;29;20454;-82
2021/10/22 03:18:16;;;;;;;0.80;0.80;;;12.90;99.90;;;;;;4916262;29;20465;-82
2021/10/22 03:20:44;;;;;;;1.40;0.97;;;12.80;99.90;;;;;;4916072;29;20466;-79
2021/10/22 03:23:14;;;;;;;1.80;0.63;;;12.80;99.90;;;;;;4907800;29;20465;-79
2021/10/22 03:25:42;;;;;;;1.07;0.63;;;12.70;99.90;;;;;;4915528;29;20847;-81
2021/10/22 03:28:10;;;;;;;0.93;0.70;;;12.60;99.90;;;;;;4916041;29;20544;-80
2021/10/22 03:30:38;;;;;;;1.90;0.97;;;12.60;99.90;;;;;;4912363;29;20981;-81
2021/10/22 03:33:07;;;;;;;1.57;0.80;;;12.50;99.90;;;;;;4913324;29;20981;-80
2021/10/22 03:35:35;;;;;;;0.80;0.80;;;12.50;99.90;;;;;;4911674;29;20477;-80
2021/10/22 03:38:04;;;;;;;1.00;0.70;;;12.40;99.90;;;;;;4915144;29;20509;-80
2021/10/22 03:40:35;;;;;;;1.23;0.77;;;12.50;99.90;;;;;;4913385;29;20465;-80
2021/10/22 03:43:03;;;;;;;0.70;0.70;;;12.60;99.90;;;;;;4919395;29;20525;-83
2021/10/22 03:45:31;;;;;;;0.80;0.80;;;12.50;99.90;;;;;;4922348;29;20462;-83
2021/10/22 03:47:59;;;;;;;1.63;0.90;;;12.50;99.90;;;;;;4918078;29;20482;-82
2021/10/22 03:50:28;;;;;;;1.10;0.90;;;12.50;99.90;;;;;;4915333;29;20882;-81
2021/10/22 03:52:56;;;;;;;1.50;0.80;;;12.50;99.90;;;;;;4922165;29;20469;-83
2021/10/22 03:55:24;;;;;;;0.90;0.90;;;12.40;99.90;;;;;;4921854;29;20450;-81
2021/10/22 03:57:54;;;;;;;0.83;0.60;;;12.30;99.90;;;;;;4921687;29;20474;-82
2021/10/22 04:00:22;;;;;;;2.07;0.83;;;12.30;99.90;;;;;;4920413;29;20840;-83
2021/10/22 04:02:50;;;;;;;1.50;1.03;;;12.30;99.90;;;;;;4927074;29;20454;-83
2021/10/22 04:05:19;;;;;;;1.43;0.80;;;12.20;99.90;;;;;;4926308;29;20454;-83
2021/10/22 04:07:47;;;;;;;1.00;1.00;;;12.30;99.90;;;;;;4927458;29;20484;-84
2021/10/22 04:10:15;;;;;;;1.63;1.00;;;12.30;99.90;;;;;;4924212;29;20902;-84
2021/10/22 04:12:43;;;;;;;4.33;1.33;;;12.30;99.90;;;;;;4925255;29;20450;-85
2021/10/22 04:15:13;;;;;;;5.40;1.10;;;12.30;99.90;;;;;;4933460;29;20456;-82
2021/10/22 04:17:41;;;;;;;2.07;1.10;;;12.30;99.90;;;;;;4917848;29;20859;-85
2021/10/22 04:20:11;;;;;;;1.30;1.20;;;12.20;99.90;;;;;;4925664;29;20454;-84
2021/10/22 04:22:39;;;;;;;1.17;1.00;;;12.20;99.90;;;;;;4925427;29;20457;-83
2021/10/22 04:25:08;;;;;;;1.00;0.80;;;12.10;99.90;;;;;;4929584;29;20445;-82
2021/10/22 04:27:37;;;;;;;4.90;0.80;;;12.00;99.90;;;;;;4934594;29;20512;-83
2021/10/22 04:30:07;;;;;;;2.73;0.80;;;12.00;99.90;;;;;;4928549;29;20546;-84
2021/10/22 04:32:37;;;;;;;1.07;1.00;;;12.00;99.90;;;;;;4923679;29;20462;-81
2021/10/22 04:35:06;;;;;;;4.93;1.30;;;12.00;99.90;;;;;;4918938;29;20532;-83
2021/10/22 04:37:44;;;;;;;1.83;0.70;;;12.00;99.90;;;;;;4920826;29;20494;-82
2021/10/22 04:43:01;;;;;;;4.40;1.00;;;12.00;99.90;;;;;;4924252;29;20469;-81
2021/10/22 04:45:31;;;;;;;2.63;0.80;;;12.00;99.90;;;;;;4916995;29;20473;-81
2021/10/22 04:48:02;;;;;;;2.50;0.93;;;12.00;99.90;;;;;;4912920;29;20518;-81
2021/10/22 04:50:31;;;;;;;1.40;1.00;;;12.00;99.90;;;;;;4920306;29;20458;-82
2021/10/22 04:52:59;;;;;;;1.00;0.80;;;11.90;99.90;;;;;;4922576;29;20449;-84
2021/10/22 04:55:29;;;;;;;3.93;1.20;;;11.90;99.90;;;;;;4922603;29;20449;-83
2021/10/22 04:57:57;;;;;;;1.80;0.80;;;11.90;99.90;;;;;;4921815;29;20540;-85
2021/10/22 05:00:25;;;;;;;1.23;0.80;;;11.80;99.90;;;;;;4922311;29;20458;-84
2021/10/22 05:02:54;;;;;;;3.80;0.70;;;11.80;99.90;;;;;;4919710;29;20459;-82
2021/10/22 05:05:23;;;;;;;2.57;0.90;;;11.80;99.90;;;;;;4920721;29;20446;-82
2021/10/22 05:07:52;;;;;;;3.00;1.07;;;11.70;99.90;;;;;;4926582;29;20472;-84
2021/10/22 05:10:20;;;;;;;1.53;0.80;;;11.70;99.90;;;;;;4924878;29;20465;-85
2021/10/22 05:12:48;;;;;;;0.80;0.80;;;11.70;99.90;;;;;;4921115;29;20450;-83
2021/10/22 05:15:16;;;;;;;3.43;0.80;;;11.60;99.90;;;;;;4921602;29;20520;-84
2021/10/22 05:17:44;;;;;;;1.23;0.80;;;11.60;99.90;;;;;;4923263;29;20475;-83
2021/10/22 05:20:13;;;;;;;1.50;1.03;;;11.60;99.90;;;;;;4917980;29;20526;-82
2021/10/22 05:22:43;;;;;;;1.33;0.80;;;11.60;99.90;;;;;;4921284;29;20458;-81
2021/10/22 05:25:12;;;;;;;1.50;0.87;;;11.60;99.90;;;;;;4919483;29;20549;-80
2021/10/22 05:27:41;;;;;;;0.80;0.60;;;11.70;99.90;;;;;;4906279;29;20518;-81
2021/10/22 05:30:10;;;;;;;0.73;0.70;;;11.60;99.90;;;;;;4919873;29;20519;-83
2021/10/22 05:32:38;;;;;;;4.83;0.90;;;11.70;99.90;;;;;;4919611;29;20752;-82
2021/10/22 05:35:07;;;;;;;1.00;0.70;;;11.60;99.90;;;;;;4913781;29;20503;-81
2021/10/22 05:37:36;;;;;;;2.63;0.87;;;11.60;99.90;;;;;;4916563;29;20521;-83
2021/10/22 05:40:07;;;;;;;1.33;0.80;;;11.50;99.90;;;;;;4925503;29;20524;-83
2021/10/22 05:42:36;;;;;;;2.70;0.90;;;11.50;99.90;;;;;;4908891;29;20449;-85
2021/10/22 05:45:05;;;;;;;4.20;2.30;;;11.50;99.90;;;;;;4917882;29;20461;-86
2021/10/22 05:47:34;;;;;;;1.33;1.00;;;11.40;99.90;;;;;;4919809;29;20478;-84
2021/10/22 05:50:04;;;;;;;1.40;1.10;;;11.50;99.90;;;;;;4916215;29;20476;-82
2021/10/22 05:52:33;;;;;;;2.53;1.30;;;11.50;99.90;;;;;;4917874;29;20968;-82
2021/10/22 05:55:01;;;;;;;2.30;1.10;;;11.40;99.90;;;;;;4912108;29;20454;-81
2021/10/22 05:57:31;;;;;;;2.13;1.20;;;11.40;99.90;;;;;;4918370;29;21047;-85
2021/10/22 05:59:59;;;;;;;3.30;1.53;;;11.40;99.90;;;;;;4919026;29;20481;-81
2021/10/22 06:02:27;;;;;;;1.90;1.17;;;11.40;99.90;;;;;;4914530;29;20472;-83
2021/10/22 06:04:56;;;;;;;2.00;1.70;;;11.30;99.90;;;;;;4927798;29;20502;-83
2021/10/22 06:07:24;;;;;;;3.60;1.53;;;11.20;99.90;;;;;;4915051;29;20485;-81
2021/10/22 06:09:52;;;;;;;3.40;1.50;;;11.30;99.90;;;;;;4916512;29;20464;-82
2021/10/22 06:12:21;;;;;;;2.20;1.30;;;11.30;99.90;;;;;;4923188;29;20461;-83
2021/10/22 06:14:51;;;;;;;2.40;1.13;;;11.30;99.90;;;;;;4913038;29;20465;-82
2021/10/22 06:17:20;;;;;;;4.60;1.37;;;11.30;99.90;;;;;;4914403;29;20491;-81
2021/10/22 06:19:51;;;;;;;2.03;1.93;;;11.30;99.90;;;;;;4919466;29;20460;-82
2021/10/22 06:22:34;;;;;;;3.13;1.10;;;11.30;99.90;;;;;;4915537;29;20454;-81
2021/10/22 06:25:03;;;;;;;3.50;1.27;;;11.30;99.90;;;;;;4903755;29;21321;-83
2021/10/22 06:27:31;;;;;;;2.40;1.47;;;11.30;99.90;;;;;;4914979;29;20489;-86
2021/10/22 06:30:01;;;;;;;8.50;1.70;;;11.30;99.90;;;;;;4918594;29;20473;-83
2021/10/22 06:32:29;;;;;;;2.00;0.90;;;11.30;99.90;;;;;;4916177;29;20460;-82
2021/10/22 06:34:59;;;;;;;1.30;1.10;;;11.30;99.90;;;;;;4916743;29;20641;-83
2021/10/22 06:37:28;;;;;;;3.40;1.13;;;11.30;99.90;;;;;;4916376;29;20474;-83
2021/10/22 06:39:56;;;;;;;1.40;1.10;;;11.30;99.90;;;;;;4915145;29;20464;-87
2021/10/22 06:42:24;;;;;;;4.50;1.37;;;11.40;99.90;;;;;;4913040;29;20458;-83
2021/10/22 06:44:53;;;;;;;2.90;1.30;;;11.30;99.90;;;;;;4908649;29;20472;-81
2021/10/22 06:47:23;;;;;;;2.53;1.20;;;11.30;99.90;;;;;;4909026;29;20504;-83
2021/10/22 06:49:51;;;;;;;3.67;2.00;;;11.30;99.90;;;;;;4908311;29;20469;-82
2021/10/22 06:52:19;;;;;;;2.57;1.43;;;11.30;99.90;;;;;;4908728;29;20471;-82
2021/10/22 06:54:47;;;;;;;4.83;1.40;;;11.30;99.90;;;;;;4912323;29;21012;-83
2021/10/22 06:57:15;;;;;;;5.73;1.23;;;11.40;99.90;;;;;;4908729;29;21045;-82
2021/10/22 06:59:44;;;;;;;4.57;1.03;;;11.40;99.90;;;;;;4924633;29;20480;-83
2021/10/22 07:02:12;;;;;;;2.50;1.37;;;11.50;99.90;;;;;;4908178;29;20958;-83
2021/10/22 07:04:48;;;;;;;3.30;1.10;;;11.50;99.90;;;;;;4914842;29;20469;-84
2021/10/22 07:07:16;;;;;;;3.60;1.23;;;11.50;99.90;;;;;;4902209;29;20512;-84
2021/10/22 07:09:44;;;;;;;6.17;1.33;;;11.60;99.90;;;;;;4901900;29;20584;-82
2021/10/22 07:12:13;;;;;;;4.30;1.33;;;11.50;99.90;;;;;;4917835;29;20520;-84
2021/10/22 07:14:49;;;;;;;4.10;1.20;;;11.50;99.90;;;;;;4921609;29;20460;-84
2021/10/22 07:17:17;;;;;;;1.70;1.20;;;11.60;99.90;;;;;;4920130;29;20983;-83
2021/10/22 07:19:47;;;;;;;2.37;1.00;;;11.60;99.90;;;;;;4906255;29;20986;-83
2021/10/22 07:22:16;;;;;;;3.50;1.37;;;11.60;99.90;;;;;;4926318;29;20464;-82
2021/10/22 07:24:44;;;;;;;4.67;1.00;;;11.70;99.90;;;;;;4904575;29;20456;-83
2021/10/22 07:27:12;;;;;;;2.67;1.10;;;11.70;99.90;;;;;;4925892;29;20485;-83
2021/10/22 07:29:41;;;;;;;1.70;1.20;;;11.70;99.90;;;;;;4916553;29;20481;-81
2021/10/22 07:32:09;;;;;;;3.30;1.20;;;11.70;99.90;;;;;;4907163;29;20549;-83
2021/10/22 07:34:37;;;;;;;2.00;1.30;;;11.80;99.90;;;;;;4913651;29;20457;-82
2021/10/22 07:37:07;;;;;;;2.30;0.90;;;11.80;99.90;;;;;;4908993;29;21430;-83
2021/10/22 07:39:36;;;;;;;4.10;1.53;;;11.80;99.90;;;;;;4917833;29;20964;-82
2021/10/22 07:42:07;;;;;;;9.00;1.20;;;11.90;99.90;;;;;;4915393;29;20477;-83
2021/10/22 07:44:52;;;;;;;3.87;0.90;;;12.10;99.90;;;;;;4911847;29;20575;-81
2021/10/22 07:47:22;;;;;;;5.97;0.93;;;12.40;99.90;;;;;;4914781;29;20505;-82
2021/10/22 07:49:52;;;;;;;4.63;1.00;;;12.50;99.90;;;;;;4925645;29;20493;-81
2021/10/22 07:52:22;;;;;;;4.33;1.10;;;12.60;99.90;;;;;;4910926;29;20472;-82
2021/10/22 07:54:51;;;;;;;4.10;0.90;;;12.70;99.90;;;;;;4919333;29;20457;-82
2021/10/22 07:57:20;;;;;;;2.43;1.00;;;12.80;99.90;;;;;;4922241;29;20474;-83
2021/10/22 07:59:49;;;;;;;3.40;0.80;;;12.80;99.90;;;;;;4923417;29;20814;-83
2021/10/22 08:02:18;;;;;;;4.33;0.93;;;12.90;99.90;;;;;;4917477;29;20533;-81
2021/10/22 08:04:50;;;;;;;1.57;0.90;;;13.10;99.90;;;;;;4918557;29;20450;-84
2021/10/22 08:07:23;;;;;;;2.03;0.73;;;13.20;99.90;;;;;;4917849;29;20933;-83
2021/10/22 08:09:51;;;;;;;4.00;1.10;;;13.50;99.90;;;;;;4918855;29;20492;-80
2021/10/22 08:12:20;;;;;;;1.33;0.83;;;13.80;99.90;;;;;;4925737;29;20549;-83
2021/10/22 08:14:48;;;;;;;4.80;0.93;;;13.90;99.90;;;;;;4920813;29;20469;-84
2021/10/22 08:17:18;;;;;;;5.33;1.07;;;14.00;99.90;;;;;;4914481;29;20477;-85
2021/10/22 08:19:51;;;;;;;2.10;0.80;;;14.20;99.90;;;;;;4932787;29;20940;-85
2021/10/22 08:22:31;;;;;;;2.63;0.80;;;14.40;99.90;;;;;;4909465;29;20448;-85
2021/10/22 08:25:01;;;;;;;3.10;1.33;;;14.60;99.90;;;;;;4907041;29;20470;-83
2021/10/22 08:27:32;;;;;;;4.23;1.03;;;14.80;99.90;;;;;;4917242;29;20865;-84
2021/10/22 08:30:00;;;;;;;3.47;1.10;;;15.00;99.90;;;;;;4915133;29;20477;-82
2021/10/22 08:32:30;;;;;;;2.93;1.10;;;15.30;99.90;;;;;;4909771;29;20475;-83
2021/10/22 08:34:58;;;;;;;1.20;0.80;;;15.60;99.90;;;;;;4917135;29;20554;-84
2021/10/22 08:37:28;;;;;;;2.27;1.10;;;15.80;99.90;;;;;;4913245;29;20478;-82
2021/10/22 08:39:56;;;;;;;1.53;1.17;;;15.80;99.90;;;;;;4915783;29;20511;-85
2021/10/22 08:42:27;;;;;;;5.10;1.10;;;16.00;99.90;;;;;;4923856;29;20489;-84
2021/10/22 08:44:56;;;;;;;2.43;1.00;;;16.20;99.90;;;;;;4912420;29;20489;-85
2021/10/22 08:47:25;;;;;;;6.13;0.90;;;16.40;99.90;;;;;;4923752;29;20517;-85
2021/10/22 08:49:56;;;;;;;3.30;1.07;;;16.60;99.90;;;;;;4925856;29;21258;-85
2021/10/22 08:52:26;;;;;;;2.07;1.23;;;16.70;99.90;;;;;;4915448;29;20513;-84
2021/10/22 08:54:57;;;;;;;2.93;1.80;;;16.80;99.90;;;;;;4925860;29;20541;-84
2021/10/22 08:57:25;;;;;;;2.20;0.93;;;16.90;99.90;;;;;;4915560;29;20578;-84
2021/10/22 08:59:57;;;;;;;2.70;0.97;;;17.00;99.90;;;;;;4911931;29;20462;-84
2021/10/22 09:02:28;;;;;;;3.10;0.70;;;17.10;99.90;;;;;;4909217;29;20471;-84
2021/10/22 09:04:59;;;;;;;2.28;1.05;;;17.20;99.90;;;;;;4918701;29;20633;-85
2021/10/22 09:07:41;;;;;;;3.13;0.90;;;17.30;99.90;;;;;;4912468;29;20733;-83
2021/10/22 09:10:15;;;;;;;5.07;1.13;;;17.40;99.90;;;;;;4914096;29;20540;-84
2021/10/22 09:12:52;;;;;;;2.10;0.80;;;17.50;99.90;;;;;;4914219;29;20467;-83
2021/10/22 09:15:23;;;;;;;2.77;0.77;;;17.70;99.90;;;;;;4913255;29;20450;-84
2021/10/22 09:17:53;;;;;;;4.67;1.53;;;17.90;99.90;;;;;;4928505;29;20538;-84
2021/10/22 09:20:24;;;;;;;3.83;1.13;;;18.00;99.90;;;;;;4913273;29;20461;-84
2021/10/22 09:22:55;;;;;;;6.83;1.10;;;18.20;99.90;;;;;;4917540;29;20473;-84
2021/10/22 09:25:26;;;;;;;5.27;0.80;;;18.40;99.90;;;;;;4913116;29;20461;-83
2021/10/22 09:27:57;;;;;;;2.73;0.90;;;18.60;99.90;;;;;;4913138;29;20493;-84
2021/10/22 09:30:38;;;;;;;4.70;1.00;;;18.80;99.90;;;;;;4908438;29;21032;-84
2021/10/22 09:33:14;;;;;;;2.50;1.00;;;18.70;99.90;;;;;;4910181;29;20497;-85
2021/10/22 09:35:44;;;;;;;2.40;0.80;;;18.70;99.90;;;;;;4905983;29;20498;-84
2021/10/22 09:38:22;;;;;;;2.43;1.30;;;18.70;99.90;;;;;;4908443;29;20526;-83
2021/10/22 09:40:54;;;;;;;2.33;0.80;;;18.80;99.90;;;;;;4902005;29;20536;-85
2021/10/22 09:43:28;;;;;;;2.23;0.70;;;18.80;99.90;;;;;;4908510;29;20828;-84
2021/10/22 09:46:15;;;;;;;1.40;0.80;;;18.80;99.90;;;;;;4908348;29;20517;-84
2021/10/22 09:48:46;;;;;;;3.57;0.83;;;18.80;99.90;;;;;;4901103;29;20460;-84
2021/10/22 09:51:31;;;;;;;4.10;0.83;;;18.80;99.90;;;;;;4914528;29;20456;-84
2021/10/22 09:54:09;;;;;;;4.20;1.00;;;18.80;99.90;;;;;;4911509;29;20520;-84
2021/10/22 09:56:42;;;;;;;2.87;0.70;;;18.80;99.90;;;;;;4911444;29;20489;-84
2021/10/22 09:59:11;;;;;;;1.30;0.80;;;18.90;99.30;;;;;;4928624;29;20462;-84
2021/10/22 10:01:42;;;;;;;5.73;0.70;;;18.80;96.60;;;;;;4906801;29;20704;-85
2021/10/22 10:04:12;;;;;;;1.80;0.90;;;18.80;94.80;;;;;;4919724;29;20815;-84
2021/10/22 10:07:01;;;;;;;1.30;1.00;;;18.80;94.30;;;;;;4906132;29;20478;-84
2021/10/22 10:09:30;;;;;;;1.33;0.90;;;18.80;94.80;;;;;;4909388;29;20487;-84
2021/10/22 10:12:02;;;;;;;1.30;0.70;;;18.90;94.90;;;;;;4906015;29;20465;-85
2021/10/22 10:14:30;;;;;;;1.90;0.60;;;18.90;96.70;;;;;;4927426;29;20940;-85
2021/10/22 10:17:00;;;;;;;4.20;1.17;;;18.90;92.40;;;;;;4908474;29;20814;-83
2021/10/22 10:19:34;;;;;;;3.70;0.90;;;18.90;90.40;;;;;;4911827;29;20449;-84
2021/10/22 10:22:05;;;;;;;1.33;1.07;;;18.90;89.80;;;;;;4913846;29;20813;-85
2021/10/22 10:24:35;;;;;;;5.17;0.70;;;19.00;89.10;;;;;;4908466;29;20483;-84
2021/10/22 10:27:08;;;;;;;3.13;0.70;;;19.10;88.60;;;;;;4911371;29;20492;-84
2021/10/22 10:29:41;;;;;;;2.00;0.80;;;19.20;87.20;;;;;;4926207;29;20486;-83
2021/10/22 10:32:11;;;;;;;1.63;0.70;;;19.10;83.20;;;;;;4902002;29;20458;-84
2021/10/22 10:34:44;;;;;;;1.43;0.80;;;19.20;83.10;;;;;;4918643;29;20532;-84
2021/10/22 10:37:35;;;;;;;2.70;1.00;;;19.10;80.30;;;;;;4907211;29;20481;-85
2021/10/22 10:40:10;;;;;;;1.80;1.00;;;19.20;78.50;;;;;;4905105;29;20450;-85
2021/10/22 10:42:48;;;;;;;5.10;1.33;;;19.30;77.70;;;;;;4910212;29;20484;-78
2021/10/22 10:45:42;;;;;;;3.67;1.33;;;19.60;85.50;;;;;;4904800;29;20460;-80
2021/10/22 10:48:14;;;;;;;2.57;0.80;;;19.80;81.00;;;;;;4908751;29;20473;-80
2021/10/22 10:50:48;;;;;;;0.73;0.73;;;20.00;83.00;;;;;;4908459;29;20492;-78
2021/10/22 10:53:18;;;;;;;2.30;1.43;;;20.20;85.40;;;;;;4908853;29;20502;-84
2021/10/22 10:55:49;;;;;;;2.00;0.60;;;20.40;86.00;;;;;;4908619;29;20503;-84
2021/10/22 10:58:21;;;;;;;3.97;1.10;;;20.60;83.50;;;;;;4910762;29;20456;-84
2021/10/22 11:00:53;;;;;;;1.73;0.73;;;20.80;83.80;;;;;;4911619;29;20458;-84
2021/10/22 11:03:28;;;;;;;3.60;2.27;;;20.90;84.00;;;;;;4911841;29;20468;-84
2021/10/22 11:06:08;;;;;;;1.47;1.37;;;20.90;82.00;;;;;;4918939;29;20457;-85
2021/10/22 11:08:51;;;;;;;1.40;0.70;;;20.80;80.50;;;;;;4915555;29;20460;-86
2021/10/22 11:11:27;;;;;;;1.90;0.80;;;20.50;75.70;;;;;;4911801;29;20480;-84
2021/10/22 11:14:09;;;;;;;1.60;0.70;;;20.30;72.00;;;;;;4925448;29;20805;-83
2021/10/22 11:16:41;;;;;;;2.87;1.20;;;20.10;73.10;;;;;;4912503;29;20496;-83
2021/10/22 11:19:12;;;;;;;4.07;0.80;;;19.90;65.70;;;;;;4910880;29;20462;-83
2021/10/22 11:21:45;;;;;;;1.53;0.60;;;19.70;64.50;;;;;;4912848;29;20454;-83
2021/10/22 11:24:16;;;;;;;0.87;0.53;;;19.60;60.80;;;;;;4904713;29;20463;-83
2021/10/22 11:26:46;;;;;;;1.73;0.57;;;19.50;61.00;;;;;;4913527;29;20561;-83
2021/10/22 11:29:18;;;;;;;3.38;1.48;;;19.40;56.90;;;;;;4907649;29;20459;-76
2021/10/22 11:31:47;;;;;;;2.57;0.80;;;19.40;59.30;;;;;;4908854;29;20259;-76
2021/10/22 11:34:18;;;;;;;1.40;0.70;;;19.40;59.20;;;;;;4909703;29;20461;-84
2021/10/22 11:36:56;;;;;;;2.87;0.87;;;19.40;62.30;;;;;;4907878;29;20501;-85
2021/10/22 11:39:26;;;;;;;1.60;0.70;;;19.30;57.90;;;;;;4910089;29;20481;-83
2021/10/22 11:42:24;;;;;;;0.97;0.60;;;19.30;57.50;;;;;;4918306;29;20469;-85
2021/10/22 11:44:57;;;;;;;1.60;0.60;;;19.20;55.00;;;;;;4912381;29;20460;-85
2021/10/22 11:47:33;;;;;;;2.00;0.60;;;19.20;54.50;;;;;;4919902;29;20481;-86
2021/10/22 11:50:19;;;;;;;1.93;0.70;;;19.20;53.60;;;;;;4927549;29;20496;-85
2021/10/22 11:52:48;;;;;;;2.37;1.17;;;19.20;52.50;;;;;;4912930;29;20461;-83
2021/10/22 11:55:20;;;;;;;1.20;0.60;;;19.10;52.30;;;;;;4911269;29;20464;-83
2021/10/22 11:57:49;;;;;;;0.93;0.40;;;19.00;50.20;;;;;;4911181;29;20472;-82
2021/10/22 12:00:19;;;;;;;3.07;0.77;;;18.90;47.30;;;;;;4914313;29;20468;-82
2021/10/22 12:02:48;;;;;;;5.67;0.80;;;19.00;49.30;;;;;;4900978;29;20470;-81
2021/10/22 12:05:17;;;;;;;0.60;0.60;;;19.10;47.40;;;;;;4901143;29;20469;-83
2021/10/22 12:07:48;;;;;;;1.10;0.47;;;18.90;44.90;;;;;;4912843;29;21021;-81
2021/10/22 12:10:17;;;;;;;2.93;1.13;;;18.90;44.70;;;;;;4914957;29;21077;-81
2021/10/22 12:12:48;;;;;;;0.87;0.60;;;18.90;42.30;;;;;;4915867;29;20564;-81
2021/10/22 12:15:20;;;;;;;1.07;0.40;;;18.80;39.30;;;;;;4910247;29;20454;-81
2021/10/22 12:17:53;;;;;;;1.23;0.60;;;18.80;39.50;;;;;;4914721;29;20489;-81
2021/10/22 12:20:23;;;;;;;0.60;0.50;;;18.70;38.20;;;;;;4930992;29;20515;-81
2021/10/22 12:22:56;;;;;;;2.20;0.70;;;18.60;38.90;;;;;;4905431;29;20458;-80
2021/10/22 12:25:26;;;;;;;1.53;0.70;;;18.70;53.30;;;;;;4907308;29;20474;-79
2021/10/22 12:27:55;;;;;;;1.00;0.70;;;18.60;38.90;;;;;;4915421;29;20581;-81
2021/10/22 12:30:26;;;;;;;2.10;0.50;;;18.60;37.20;;;;;;4911026;29;20468;-81
2021/10/22 12:32:56;;;;;;;0.90;0.60;;;18.40;35.40;;;;;;4914526;29;20965;-81
2021/10/22 12:35:30;;;;;;;0.90;0.70;;;18.40;35.20;;;;;;4910501;29;20483;-84
2021/10/22 12:38:02;;;;;;;3.00;1.50;;;18.40;36.20;;;;;;4909235;29;20908;-84
2021/10/22 12:40:33;;;;;;;1.87;0.70;;;18.50;38.00;;;;;;4914528;29;20475;-84
2021/10/22 12:43:14;;;;;;;0.67;0.60;;;18.40;37.90;;;;;;4907505;29;20465;-84
2021/10/22 12:45:48;;;;;;;1.60;0.60;;;18.50;36.90;;;;;;4917909;29;20462;-83
2021/10/22 12:48:18;;;;;;;1.30;0.63;;;18.40;37.40;;;;;;4911117;29;20888;-83
2021/10/22 12:50:47;;;;;;;2.50;0.70;;;18.40;38.10;;;;;;4916275;29;20495;-84
2021/10/22 12:53:20;;;;;;;0.90;0.60;;;18.50;38.70;;;;;;4908426;29;20474;-84
2021/10/22 12:56:08;;;;;;;1.67;0.80;;;18.40;36.00;;;;;;4911161;29;20459;-84
2021/10/22 12:58:39;;;;;;;2.30;0.80;;;18.30;35.70;;;;;;4917649;29;20479;-84
2021/10/22 13:01:14;;;;;;;0.90;0.80;;;18.30;36.80;;;;;;4908264;29;20489;-81
2021/10/22 13:03:45;;;;;;;1.60;0.80;;;18.30;36.80;;;;;;4907314;29;20512;-83
2021/10/22 13:06:31;;;;;;;3.17;1.43;;;18.40;37.50;;;;;;4914544;29;20632;-83